Time;durP1;ratioP1;P1;durP2;ratioP2;P2;SDS_P1;SDS_P2;PMS_P1;PMS_P2;Temp;Humidity;BMP_temperature;BMP_pressure;BME280_temperature;BME280_humidity;BME280_pressure;Samples;Min_cycle;Max_cycle;Signal;HPM_P1;HPM_P2
2021/07/01 00:01:10;;;;;;;11.90;9.63;;;14.90;99.90;;;;;;5058150;28;20473;-77
2021/07/01 00:03:38;;;;;;;11.03;8.63;;;14.90;99.90;;;;;;5065931;28;20480;-77
2021/07/01 00:06:05;;;;;;;12.53;10.00;;;14.90;99.90;;;;;;5057984;28;20469;-77
2021/07/01 00:08:33;;;;;;;14.27;9.60;;;14.90;99.90;;;;;;5051839;28;20439;-76
2021/07/01 00:10:59;;;;;;;11.73;10.10;;;14.90;99.90;;;;;;5037967;28;20551;-77
2021/07/01 00:13:26;;;;;;;14.30;9.30;;;14.90;99.90;;;;;;5054331;28;20460;-77
2021/07/01 00:15:53;;;;;;;12.33;9.93;;;14.80;99.90;;;;;;5051061;28;20476;-77
2021/07/01 00:18:21;;;;;;;13.23;10.33;;;14.90;99.90;;;;;;5053281;28;20444;-76
2021/07/01 00:20:49;;;;;;;11.27;9.17;;;14.90;99.90;;;;;;5051060;28;21353;-76
2021/07/01 00:23:15;;;;;;;9.50;8.33;;;14.80;99.90;;;;;;5051614;28;20841;-77
2021/07/01 00:25:43;;;;;;;10.90;8.60;;;14.90;99.90;;;;;;5051434;28;20673;-77
2021/07/01 00:28:10;;;;;;;10.10;8.40;;;14.80;99.90;;;;;;5057589;28;20452;-77
2021/07/01 00:30:37;;;;;;;11.63;8.93;;;14.80;99.90;;;;;;5051736;28;20440;-76
2021/07/01 00:33:04;;;;;;;11.17;8.50;;;14.80;99.90;;;;;;5049971;28;20947;-77
2021/07/01 00:35:32;;;;;;;12.10;8.17;;;14.80;99.90;;;;;;5051577;28;20965;-77
2021/07/01 00:37:59;;;;;;;12.60;8.80;;;14.90;99.90;;;;;;5050717;28;20444;-77
2021/07/01 00:40:26;;;;;;;9.80;8.70;;;14.80;99.90;;;;;;5050406;28;20488;-77
2021/07/01 00:42:53;;;;;;;9.10;8.00;;;14.80;99.90;;;;;;5054780;28;20440;-76
2021/07/01 00:45:20;;;;;;;10.37;8.13;;;14.80;99.90;;;;;;5049124;28;20476;-76
2021/07/01 00:47:47;;;;;;;11.73;8.60;;;14.80;99.90;;;;;;5050103;28;20843;-77
2021/07/01 00:50:15;;;;;;;11.30;8.17;;;14.80;99.90;;;;;;5051583;28;20950;-76
2021/07/01 00:52:43;;;;;;;12.00;8.80;;;14.70;99.90;;;;;;5050515;28;20437;-77
2021/07/01 00:55:12;;;;;;;9.07;7.63;;;14.70;99.90;;;;;;5053344;28;20482;-77
2021/07/01 00:57:39;;;;;;;12.70;8.10;;;14.80;99.90;;;;;;5035464;28;20552;-77
2021/07/01 01:00:21;;;;;;;10.40;7.63;;;14.70;99.90;;;;;;5052594;28;20459;-77
2021/07/01 01:02:48;;;;;;;12.10;7.37;;;14.80;99.90;;;;;;5066041;28;20486;-77
2021/07/01 01:05:16;;;;;;;8.57;7.57;;;14.70;99.90;;;;;;5051844;28;20482;-77
2021/07/01 01:07:44;;;;;;;13.40;8.50;;;14.70;99.90;;;;;;5050756;28;20441;-77
2021/07/01 01:10:12;;;;;;;9.23;8.10;;;14.60;99.90;;;;;;5051595;28;20465;-76
2021/07/01 01:12:39;;;;;;;12.57;8.20;;;14.70;99.90;;;;;;5050973;28;20470;-77
2021/07/01 01:15:07;;;;;;;10.30;8.03;;;14.70;99.90;;;;;;5062534;28;20475;-77
2021/07/01 01:17:34;;;;;;;14.73;8.00;;;14.70;99.90;;;;;;5049835;28;20938;-77
2021/07/01 01:20:01;;;;;;;12.97;8.90;;;14.70;99.90;;;;;;5050155;28;20440;-77
2021/07/01 01:22:29;;;;;;;13.33;9.03;;;14.70;99.90;;;;;;5051398;28;20485;-78
2021/07/01 01:24:56;;;;;;;10.60;8.60;;;14.70;99.90;;;;;;5064180;28;20437;-77
2021/07/01 01:27:23;;;;;;;8.60;7.23;;;14.70;99.90;;;;;;5050901;28;20965;-76
2021/07/01 01:29:50;;;;;;;10.47;6.77;;;14.70;99.90;;;;;;5049303;28;20440;-77
2021/07/01 01:32:17;;;;;;;9.00;6.87;;;14.70;99.90;;;;;;5053211;28;20453;-77
2021/07/01 01:34:44;;;;;;;7.67;6.10;;;14.70;99.90;;;;;;5069683;28;20448;-77
2021/07/01 01:37:11;;;;;;;6.37;5.30;;;14.70;99.90;;;;;;5068220;28;20456;-77
2021/07/01 01:39:39;;;;;;;8.13;5.70;;;14.70;99.90;;;;;;5052298;28;20970;-76
2021/07/01 01:42:07;;;;;;;6.30;5.20;;;14.70;99.90;;;;;;5047887;28;20488;-76
2021/07/01 01:44:34;;;;;;;7.07;5.10;;;14.60;99.90;;;;;;5050658;28;20863;-77
2021/07/01 01:47:00;;;;;;;6.70;5.63;;;14.70;99.90;;;;;;5049595;28;20542;-76
2021/07/01 01:49:27;;;;;;;7.30;5.93;;;14.60;99.90;;;;;;5050044;28;20803;-77
2021/07/01 01:51:54;;;;;;;6.70;6.00;;;14.60;99.90;;;;;;5051635;28;20455;-77
2021/07/01 01:54:21;;;;;;;10.63;5.90;;;14.60;99.90;;;;;;5051120;28;20472;-77
2021/07/01 01:56:49;;;;;;;6.53;5.70;;;14.60;99.90;;;;;;5051949;28;20813;-77
2021/07/01 01:59:16;;;;;;;7.30;5.50;;;14.60;99.90;;;;;;5052370;28;20465;-77
2021/07/01 02:01:43;;;;;;;8.60;5.90;;;14.50;99.90;;;;;;5052490;28;20490;-77
2021/07/01 02:04:10;;;;;;;8.97;6.73;;;14.50;99.90;;;;;;5053042;28;20431;-77
2021/07/01 02:06:38;;;;;;;8.87;6.10;;;14.60;99.90;;;;;;5055603;28;20479;-78
2021/07/01 02:09:05;;;;;;;8.60;6.13;;;14.50;99.90;;;;;;5069588;28;20943;-76
2021/07/01 02:11:32;;;;;;;6.80;5.80;;;14.50;99.90;;;;;;5066965;28;20578;-77
2021/07/01 02:14:00;;;;;;;8.27;6.13;;;14.50;99.90;;;;;;5050666;28;20470;-77
2021/07/01 02:16:27;;;;;;;9.10;6.80;;;14.50;99.90;;;;;;5051458;28;20459;-76
2021/07/01 02:18:54;;;;;;;10.70;6.47;;;14.50;99.90;;;;;;5060871;28;20458;-76
2021/07/01 02:21:21;;;;;;;8.33;5.90;;;14.50;99.90;;;;;;5071207;28;20834;-77
2021/07/01 02:23:48;;;;;;;6.30;5.70;;;14.50;99.90;;;;;;5056245;28;20803;-77
2021/07/01 02:26:16;;;;;;;8.20;6.70;;;14.50;99.90;;;;;;5055139;28;20456;-78
2021/07/01 02:28:43;;;;;;;6.93;6.23;;;14.50;99.90;;;;;;5047732;28;20454;-77
2021/07/01 02:31:11;;;;;;;8.97;5.90;;;14.40;99.90;;;;;;5050813;28;20494;-77
2021/07/01 02:33:38;;;;;;;8.50;6.80;;;14.40;99.90;;;;;;5049651;28;20440;-77
2021/07/01 02:36:06;;;;;;;6.73;5.73;;;14.50;99.90;;;;;;5051193;28;20896;-77
2021/07/01 02:38:33;;;;;;;10.87;6.90;;;14.50;99.90;;;;;;5063226;28;20464;-77
2021/07/01 02:41:00;;;;;;;8.10;6.40;;;14.40;99.90;;;;;;5051264;28;20483;-77
2021/07/01 02:43:27;;;;;;;7.03;6.33;;;14.40;99.90;;;;;;5053444;28;20482;-77
2021/07/01 02:45:54;;;;;;;7.30;6.60;;;14.50;99.90;;;;;;5055024;28;20455;-77
2021/07/01 02:48:22;;;;;;;8.77;6.53;;;14.40;99.90;;;;;;5053626;28;20472;-77
2021/07/01 02:50:49;;;;;;;8.77;7.13;;;14.40;99.90;;;;;;5068569;28;20775;-76
2021/07/01 02:53:16;;;;;;;7.40;6.70;;;14.40;99.90;;;;;;5065715;28;20428;-77
2021/07/01 02:55:43;;;;;;;8.53;7.30;;;14.40;99.90;;;;;;5061060;28;20511;-77
2021/07/01 02:58:10;;;;;;;8.13;6.93;;;14.40;99.90;;;;;;5053534;28;20436;-77
2021/07/01 03:00:37;;;;;;;8.43;7.50;;;14.50;99.90;;;;;;5049033;28;20452;-76
2021/07/01 03:03:04;;;;;;;8.50;7.10;;;14.40;99.90;;;;;;5047836;28;20863;-77
2021/07/01 03:05:32;;;;;;;10.20;7.07;;;14.40;99.90;;;;;;5048574;28;20836;-76
2021/07/01 03:07:59;;;;;;;8.03;7.03;;;14.40;99.90;;;;;;5049796;28;20467;-77
2021/07/01 03:10:26;;;;;;;8.60;7.80;;;14.40;99.90;;;;;;5048698;28;20534;-76
2021/07/01 03:12:53;;;;;;;7.43;6.73;;;14.40;99.90;;;;;;5047747;28;20460;-77
2021/07/01 03:15:20;;;;;;;8.30;6.93;;;14.40;99.90;;;;;;5060432;28;20458;-77
2021/07/01 03:17:47;;;;;;;9.00;7.87;;;14.40;99.90;;;;;;5053092;28;20708;-77
2021/07/01 03:20:14;;;;;;;8.60;7.67;;;14.40;99.90;;;;;;5048613;28;20438;-77
2021/07/01 03:22:42;;;;;;;9.40;7.80;;;14.40;99.90;;;;;;5047668;28;20490;-77
2021/07/01 03:25:10;;;;;;;9.63;7.80;;;14.30;99.90;;;;;;5048610;28;20460;-77
2021/07/01 03:27:37;;;;;;;10.93;7.70;;;14.30;99.90;;;;;;5052862;28;20457;-77
2021/07/01 03:30:05;;;;;;;9.90;8.10;;;14.30;99.90;;;;;;5060425;28;20455;-77
2021/07/01 03:32:32;;;;;;;10.60;8.70;;;14.40;99.90;;;;;;5068573;28;20466;-77
2021/07/01 03:34:59;;;;;;;9.10;8.20;;;14.40;99.90;;;;;;5051048;28;20456;-77
2021/07/01 03:37:25;;;;;;;11.20;8.87;;;14.30;99.90;;;;;;5048200;28;20444;-76
2021/07/01 03:39:54;;;;;;;10.50;8.60;;;14.30;99.90;;;;;;5056587;28;20466;-76
2021/07/01 03:42:21;;;;;;;9.40;8.33;;;14.30;99.90;;;;;;5048094;28;20841;-77
2021/07/01 03:44:49;;;;;;;11.17;8.70;;;14.30;99.90;;;;;;5047806;28;20934;-77
2021/07/01 03:47:16;;;;;;;9.17;7.57;;;14.30;99.90;;;;;;5046907;28;20447;-77
2021/07/01 03:49:43;;;;;;;11.27;8.30;;;14.30;99.90;;;;;;5050942;28;20460;-78
2021/07/01 03:52:10;;;;;;;11.83;7.67;;;14.30;99.90;;;;;;5052570;28;20447;-77
2021/07/01 03:54:37;;;;;;;11.83;7.67;;;14.30;99.90;;;;;;5052132;28;20436;-77
2021/07/01 03:57:06;;;;;;;9.57;8.57;;;14.40;99.90;;;;;;5054256;28;20451;-77
2021/07/01 03:59:33;;;;;;;8.00;7.20;;;14.30;99.90;;;;;;5050632;28;20444;-77
2021/07/01 04:02:00;;;;;;;9.93;7.97;;;14.40;99.90;;;;;;5051822;28;20518;-77
2021/07/01 04:04:27;;;;;;;9.87;8.03;;;14.30;99.90;;;;;;5058522;28;20459;-77
2021/07/01 04:06:54;;;;;;;9.30;7.40;;;14.40;99.90;;;;;;5072157;28;20476;-77
2021/07/01 04:09:21;;;;;;;9.37;8.10;;;14.40;99.90;;;;;;5070435;28;20832;-76
2021/07/01 04:11:48;;;;;;;10.80;7.97;;;14.40;99.90;;;;;;5069640;28;20490;-77
2021/07/01 04:14:18;;;;;;;10.93;8.10;;;14.40;99.90;;;;;;5063632;28;20453;-77
2021/07/01 04:16:45;;;;;;;13.73;8.00;;;14.40;99.90;;;;;;5055482;28;20459;-77
2021/07/01 04:19:12;;;;;;;8.40;6.90;;;14.40;99.90;;;;;;5050599;28;20484;-77
2021/07/01 04:21:39;;;;;;;8.23;7.23;;;14.40;99.90;;;;;;5051113;28;20484;-77
2021/07/01 04:24:06;;;;;;;9.30;7.80;;;14.40;99.90;;;;;;5051278;28;20440;-77
2021/07/01 04:26:34;;;;;;;9.60;8.10;;;14.40;99.90;;;;;;5056653;28;20475;-77
2021/07/01 04:29:00;;;;;;;18.87;9.03;;;14.40;99.90;;;;;;5067087;28;20456;-76
2021/07/01 04:31:29;;;;;;;8.50;7.53;;;14.40;99.90;;;;;;5053491;28;20464;-76
2021/07/01 04:33:56;;;;;;;9.23;8.10;;;14.40;99.90;;;;;;5053360;28;20459;-77
2021/07/01 04:36:23;;;;;;;12.60;8.80;;;14.40;99.90;;;;;;5053478;28;20822;-77
2021/07/01 04:38:50;;;;;;;11.70;9.07;;;14.40;99.90;;;;;;5059018;28;20449;-77
2021/07/01 04:41:19;;;;;;;14.57;8.70;;;14.40;99.90;;;;;;5052002;28;20455;-77
2021/07/01 04:43:46;;;;;;;12.97;9.67;;;14.40;99.90;;;;;;5059859;28;20456;-76
2021/07/01 04:46:14;;;;;;;14.00;10.13;;;14.40;99.90;;;;;;5051264;28;20868;-78
2021/07/01 04:48:43;;;;;;;13.90;9.80;;;14.40;99.90;;;;;;5048148;28;20464;-77
2021/07/01 04:51:10;;;;;;;19.60;10.10;;;14.50;99.90;;;;;;5065209;28;20460;-77
2021/07/01 04:53:39;;;;;;;13.60;10.27;;;14.50;99.90;;;;;;5053748;28;20457;-76
2021/07/01 04:56:06;;;;;;;11.27;10.00;;;14.50;99.90;;;;;;5054490;28;20484;-77
2021/07/01 04:58:33;;;;;;;21.57;10.87;;;14.50;99.90;;;;;;5050317;28;20451;-77
2021/07/01 05:01:00;;;;;;;13.50;9.33;;;14.50;99.90;;;;;;5054845;28;20531;-77
2021/07/01 05:03:29;;;;;;;15.57;11.17;;;14.50;99.90;;;;;;5070793;28;20497;-76
2021/07/01 05:05:57;;;;;;;14.67;10.50;;;14.50;99.90;;;;;;5065255;28;20479;-76
2021/07/01 05:08:24;;;;;;;14.20;11.10;;;14.50;99.90;;;;;;5050212;28;20436;-75
2021/07/01 05:10:51;;;;;;;17.53;10.70;;;14.50;99.90;;;;;;5052443;28;20498;-76
2021/07/01 05:13:18;;;;;;;16.13;10.10;;;14.50;99.90;;;;;;5050288;28;21192;-76
2021/07/01 05:15:45;;;;;;;14.50;10.43;;;14.50;99.90;;;;;;5050824;28;20589;-76
2021/07/01 05:18:12;;;;;;;15.83;11.00;;;14.60;99.90;;;;;;5049673;28;21151;-76
2021/07/01 05:20:39;;;;;;;17.43;11.77;;;14.50;99.90;;;;;;5056087;28;20471;-77
2021/07/01 05:23:07;;;;;;;14.40;10.37;;;14.50;99.90;;;;;;5056988;28;20475;-76
2021/07/01 05:25:34;;;;;;;17.47;11.00;;;14.60;99.90;;;;;;5070025;28;20466;-76
2021/07/01 05:28:08;;;;;;;16.57;11.70;;;14.60;99.90;;;;;;5065784;28;20967;-77
2021/07/01 05:30:35;;;;;;;17.00;11.10;;;14.60;99.90;;;;;;5069938;28;20434;-76
2021/07/01 05:33:02;;;;;;;16.73;10.63;;;14.60;99.90;;;;;;5059614;28;20448;-77
2021/07/01 05:35:29;;;;;;;13.60;10.90;;;14.60;99.90;;;;;;5050802;28;20960;-77
2021/07/01 05:37:56;;;;;;;14.90;10.63;;;14.60;99.90;;;;;;5049527;28;20460;-77
2021/07/01 05:40:25;;;;;;;12.77;10.30;;;14.60;99.90;;;;;;5063324;28;20482;-77
2021/07/01 05:42:51;;;;;;;13.77;9.90;;;14.70;99.90;;;;;;5069537;28;20891;-76
2021/07/01 05:45:18;;;;;;;17.17;10.47;;;14.60;99.90;;;;;;5060579;28;20476;-77
2021/07/01 05:47:46;;;;;;;14.77;11.10;;;14.70;99.90;;;;;;5050986;28;20437;-77
2021/07/01 05:50:13;;;;;;;15.53;10.93;;;14.70;99.90;;;;;;5054909;28;20519;-77
2021/07/01 05:52:42;;;;;;;23.37;11.30;;;14.70;99.90;;;;;;5049245;28;21206;-77
2021/07/01 05:55:10;;;;;;;17.47;11.00;;;14.70;99.90;;;;;;5048081;28;20496;-77
2021/07/01 05:57:39;;;;;;;20.93;10.73;;;14.60;99.90;;;;;;5051237;28;20458;-77
2021/07/01 06:00:08;;;;;;;16.13;9.90;;;14.70;99.90;;;;;;5052930;28;20456;-76
2021/07/01 06:02:35;;;;;;;16.53;9.67;;;14.70;99.90;;;;;;5052880;28;20488;-76
2021/07/01 06:05:02;;;;;;;14.73;10.43;;;14.70;99.90;;;;;;5049044;28;20452;-77
2021/07/01 06:07:29;;;;;;;20.93;11.07;;;14.70;99.90;;;;;;5049868;28;20446;-76
2021/07/01 06:10:00;;;;;;;14.60;9.73;;;14.70;99.90;;;;;;5053158;28;20444;-76
2021/07/01 06:12:31;;;;;;;17.90;9.10;;;14.70;99.90;;;;;;5062890;28;21014;-76
2021/07/01 06:15:00;;;;;;;13.23;8.97;;;14.70;99.90;;;;;;5039849;28;20453;-76
2021/07/01 06:17:28;;;;;;;13.27;9.77;;;14.80;99.90;;;;;;5071467;28;20459;-77
2021/07/01 06:19:55;;;;;;;18.30;9.30;;;14.80;99.90;;;;;;5061214;28;20457;-77
2021/07/01 06:22:23;;;;;;;12.50;8.57;;;14.80;99.90;;;;;;5054542;28;20506;-77
2021/07/01 06:24:55;;;;;;;15.00;8.90;;;14.80;99.90;;;;;;5052598;28;20529;-76
2021/07/01 06:27:29;;;;;;;21.53;9.17;;;14.80;99.90;;;;;;5051412;28;20498;-76
2021/07/01 06:29:56;;;;;;;15.00;8.93;;;14.90;99.90;;;;;;5069082;28;20801;-77
2021/07/01 06:32:24;;;;;;;13.00;9.00;;;14.90;99.90;;;;;;5051568;28;20475;-78
2021/07/01 06:34:51;;;;;;;15.93;8.37;;;14.90;99.90;;;;;;5051068;28;20448;-77
2021/07/01 06:37:18;;;;;;;19.50;7.90;;;14.80;99.90;;;;;;5063187;28;20456;-76
2021/07/01 06:39:48;;;;;;;14.87;7.70;;;14.80;99.90;;;;;;5051120;28;20526;-75
2021/07/01 06:42:17;;;;;;;13.10;8.30;;;14.80;99.90;;;;;;5049923;28;20481;-76
2021/07/01 06:44:45;;;;;;;11.30;7.90;;;14.90;99.90;;;;;;5057352;28;21659;-76
2021/07/01 06:47:12;;;;;;;11.13;7.27;;;14.90;99.90;;;;;;5049363;28;20444;-76
2021/07/01 06:49:42;;;;;;;16.53;7.77;;;14.80;99.90;;;;;;5049114;28;20789;-76
2021/07/01 06:52:14;;;;;;;17.13;7.50;;;14.80;99.90;;;;;;5048519;28;20460;-76
2021/07/01 06:54:41;;;;;;;12.60;8.30;;;14.90;99.90;;;;;;5048679;28;20457;-75
2021/07/01 06:57:09;;;;;;;13.60;8.07;;;14.90;99.90;;;;;;5065313;28;20432;-76
2021/07/01 06:59:36;;;;;;;15.77;8.83;;;14.80;99.90;;;;;;5048877;28;20448;-75
2021/07/01 07:02:04;;;;;;;18.70;8.40;;;14.80;99.90;;;;;;5055498;28;20789;-77
2021/07/01 07:04:33;;;;;;;11.80;7.70;;;14.80;99.90;;;;;;5064644;28;20432;-76
2021/07/01 07:07:04;;;;;;;12.50;7.57;;;14.80;99.90;;;;;;5048499;28;20488;-76
2021/07/01 07:09:31;;;;;;;12.10;7.43;;;14.80;99.90;;;;;;5048894;28;20850;-76
2021/07/01 07:11:58;;;;;;;11.67;7.70;;;14.80;99.90;;;;;;5048209;28;20490;-76
2021/07/01 07:14:25;;;;;;;11.73;6.83;;;14.80;99.90;;;;;;5049320;28;20441;-75
2021/07/01 07:16:57;;;;;;;11.33;7.10;;;14.70;99.90;;;;;;5046426;28;20978;-76
2021/07/01 07:19:24;;;;;;;11.60;6.33;;;14.70;99.90;;;;;;5050631;28;21130;-76
2021/07/01 07:21:52;;;;;;;7.30;6.47;;;14.70;99.90;;;;;;5062667;28;20436;-75
2021/07/01 07:24:21;;;;;;;10.70;6.63;;;14.70;99.90;;;;;;5056380;28;20494;-76
2021/07/01 07:26:51;;;;;;;11.00;6.43;;;14.70;99.90;;;;;;5062240;28;20472;-76
2021/07/01 07:29:21;;;;;;;17.13;8.50;;;14.70;99.90;;;;;;5054744;28;20477;-76
2021/07/01 07:31:48;;;;;;;9.80;6.60;;;14.60;99.90;;;;;;5051154;28;20447;-76
2021/07/01 07:34:17;;;;;;;10.20;6.13;;;14.60;99.90;;;;;;5050986;28;20432;-77
2021/07/01 07:36:46;;;;;;;10.80;6.23;;;14.60;99.90;;;;;;5060606;28;20471;-76
2021/07/01 07:39:13;;;;;;;9.13;6.27;;;14.60;99.90;;;;;;5053184;28;20440;-76
2021/07/01 07:41:42;;;;;;;8.07;6.60;;;14.60;99.90;;;;;;5062945;28;20461;-78
2021/07/01 07:44:09;;;;;;;7.90;5.47;;;14.60;99.90;;;;;;5073928;28;20810;-78
2021/07/01 07:46:36;;;;;;;8.17;5.50;;;14.60;99.90;;;;;;5065937;28;21037;-77
2021/07/01 07:49:03;;;;;;;9.40;6.07;;;14.60;99.90;;;;;;5064844;28;20440;-77
2021/07/01 07:51:33;;;;;;;8.80;6.00;;;14.60;99.90;;;;;;5052196;28;20924;-77
2021/07/01 07:54:03;;;;;;;8.80;5.10;;;14.60;99.90;;;;;;5052025;28;20459;-77
2021/07/01 07:56:37;;;;;;;7.60;5.30;;;14.70;99.90;;;;;;5054502;28;20456;-77
2021/07/01 07:59:06;;;;;;;10.80;5.53;;;14.70;99.90;;;;;;5063157;28;20459;-77
2021/07/01 08:01:34;;;;;;;11.30;5.80;;;14.70;99.90;;;;;;5061141;28;22134;-78
2021/07/01 08:04:05;;;;;;;8.43;5.30;;;14.70;99.90;;;;;;5055057;28;20480;-78
2021/07/01 08:06:33;;;;;;;7.60;5.47;;;14.80;99.90;;;;;;5053771;28;20901;-77
2021/07/01 08:09:05;;;;;;;8.90;4.97;;;14.80;99.90;;;;;;5065461;28;20460;-77
2021/07/01 08:11:35;;;;;;;8.30;6.00;;;14.90;99.90;;;;;;5064157;28;21188;-78
2021/07/01 08:14:03;;;;;;;7.03;4.93;;;15.00;99.90;;;;;;5053253;28;20617;-77
2021/07/01 08:16:32;;;;;;;11.70;6.20;;;15.10;99.90;;;;;;5051492;28;20559;-77
2021/07/01 08:19:00;;;;;;;7.23;5.30;;;15.10;99.90;;;;;;5051237;28;20429;-77
2021/07/01 08:21:29;;;;;;;12.07;6.10;;;15.10;99.90;;;;;;5051198;28;20786;-78
2021/07/01 08:23:57;;;;;;;8.90;6.13;;;15.20;99.90;;;;;;5062239;28;20455;-77
2021/07/01 08:26:25;;;;;;;7.50;5.47;;;15.30;99.90;;;;;;5061446;28;20465;-78
2021/07/01 08:28:53;;;;;;;7.93;5.20;;;15.30;99.90;;;;;;5059362;28;20448;-77
2021/07/01 08:31:20;;;;;;;8.07;5.30;;;15.40;99.90;;;;;;5070769;28;20924;-78
2021/07/01 08:33:50;;;;;;;9.63;6.17;;;15.40;99.90;;;;;;5056374;28;20471;-78
2021/07/01 08:36:20;;;;;;;8.50;5.47;;;15.50;99.90;;;;;;5049867;28;20420;-77
2021/07/01 08:38:49;;;;;;;8.43;6.17;;;15.50;99.90;;;;;;5054649;28;20438;-77
2021/07/01 08:41:19;;;;;;;11.90;6.33;;;15.60;99.90;;;;;;5073423;28;20421;-77
2021/07/01 08:43:53;;;;;;;13.27;6.03;;;15.60;99.90;;;;;;5067172;28;20555;-78
2021/07/01 08:46:24;;;;;;;7.87;5.20;;;15.60;99.90;;;;;;5057940;28;20456;-77
2021/07/01 08:49:08;;;;;;;11.67;6.47;;;15.60;99.90;;;;;;5059236;28;20437;-77
2021/07/01 08:51:37;;;;;;;10.67;5.43;;;15.60;99.90;;;;;;5037514;28;20435;-77
2021/07/01 08:54:17;;;;;;;7.80;5.73;;;15.70;99.90;;;;;;5049865;28;20427;-78
2021/07/01 08:56:45;;;;;;;8.33;5.30;;;15.70;99.90;;;;;;5050005;28;20468;-78
2021/07/01 08:59:13;;;;;;;11.77;5.50;;;15.70;99.90;;;;;;5051186;28;20412;-78
2021/07/01 09:01:42;;;;;;;11.70;6.27;;;15.80;99.90;;;;;;5060353;28;20947;-78
2021/07/01 09:04:12;;;;;;;14.40;5.50;;;15.80;99.90;;;;;;5066937;28;20459;-77
2021/07/01 09:06:40;;;;;;;6.43;5.03;;;15.90;99.90;;;;;;5056142;28;20458;-77
2021/07/01 09:09:08;;;;;;;7.80;4.67;;;16.00;99.90;;;;;;5044731;28;20450;-78
2021/07/01 09:11:38;;;;;;;6.63;4.23;;;16.20;99.90;;;;;;5053639;28;20966;-79
2021/07/01 09:14:07;;;;;;;7.23;4.20;;;16.40;99.90;;;;;;5059291;28;20446;-78
2021/07/01 09:16:34;;;;;;;9.73;5.20;;;16.50;99.90;;;;;;5056917;28;20478;-77
2021/07/01 09:19:02;;;;;;;8.43;4.83;;;16.60;99.90;;;;;;5052622;28;20463;-77
2021/07/01 09:21:31;;;;;;;6.40;5.13;;;16.60;99.90;;;;;;5062920;28;20499;-77
2021/07/01 09:24:00;;;;;;;6.60;5.47;;;16.60;99.90;;;;;;5052825;28;20513;-77
2021/07/01 09:26:28;;;;;;;7.33;5.40;;;16.60;99.90;;;;;;5053351;28;20805;-78
2021/07/01 09:28:56;;;;;;;6.23;5.40;;;16.60;99.90;;;;;;5050141;28;20482;-78
2021/07/01 09:31:25;;;;;;;9.33;5.90;;;16.60;99.90;;;;;;5052338;28;20440;-78
2021/07/01 09:33:53;;;;;;;9.97;6.17;;;16.50;99.90;;;;;;5049671;28;20473;-78
2021/07/01 09:36:24;;;;;;;7.80;5.07;;;16.50;99.90;;;;;;5049244;28;20442;-79
2021/07/01 09:38:54;;;;;;;9.13;6.90;;;16.50;99.90;;;;;;5048122;28;20773;-80
2021/07/01 09:41:23;;;;;;;6.93;5.73;;;16.50;99.90;;;;;;5047547;28;20445;-78
2021/07/01 09:43:52;;;;;;;9.03;6.03;;;16.60;99.90;;;;;;5065435;28;20476;-79
2021/07/01 09:46:21;;;;;;;6.30;5.70;;;16.50;99.90;;;;;;5052457;28;20496;-78
2021/07/01 09:48:50;;;;;;;7.67;5.73;;;16.50;99.90;;;;;;5064271;28;20466;-79
2021/07/01 09:51:18;;;;;;;13.37;6.33;;;16.50;99.90;;;;;;5048042;28;20432;-79
2021/07/01 09:53:50;;;;;;;8.90;6.13;;;16.50;99.90;;;;;;5047113;28;20432;-79
2021/07/01 09:56:24;;;;;;;10.60;5.87;;;16.50;99.90;;;;;;5054449;28;20473;-80
2021/07/01 10:01:25;;;;;;;9.43;6.40;;;16.40;99.90;;;;;;5058067;28;20466;-80
2021/07/01 10:03:55;;;;;;;6.90;5.30;;;16.40;99.90;;;;;;5056768;28;20231;-79
2021/07/01 10:06:22;;;;;;;9.33;5.97;;;16.40;99.90;;;;;;5047333;28;20455;-80
2021/07/01 10:08:51;;;;;;;9.60;5.90;;;16.30;99.90;;;;;;5050834;28;20443;-78
2021/07/01 10:11:32;;;;;;;8.17;5.70;;;16.20;99.90;;;;;;5045060;28;20453;-78
2021/07/01 10:14:03;;;;;;;6.07;5.47;;;16.10;99.90;;;;;;5051855;28;20431;-77
2021/07/01 10:16:33;;;;;;;10.40;5.37;;;16.10;99.90;;;;;;5046068;28;20448;-78
2021/07/01 10:19:01;;;;;;;6.33;5.60;;;16.10;99.90;;;;;;5053159;28;20432;-77
2021/07/01 10:21:29;;;;;;;9.53;6.03;;;16.00;99.90;;;;;;5050366;28;20446;-77
2021/07/01 10:24:12;;;;;;;9.80;5.70;;;16.00;99.90;;;;;;5048007;28;20861;-77
2021/07/01 10:26:42;;;;;;;7.37;6.03;;;16.00;99.90;;;;;;5064887;28;20480;-77
2021/07/01 10:29:10;;;;;;;8.93;6.00;;;15.90;99.90;;;;;;5066197;28;20448;-77
2021/07/01 10:31:52;;;;;;;6.07;5.40;;;15.90;99.90;;;;;;5048126;28;20505;-77
2021/07/01 10:34:19;;;;;;;6.50;5.53;;;15.90;99.90;;;;;;5030774;28;21027;-77
2021/07/01 10:36:46;;;;;;;7.03;5.07;;;15.80;99.90;;;;;;5055000;28;20603;-77
2021/07/01 10:39:13;;;;;;;8.10;6.13;;;15.80;99.90;;;;;;5066242;28;20448;-77
2021/07/01 10:41:42;;;;;;;9.17;6.00;;;15.80;99.90;;;;;;5043534;28;20466;-77
2021/07/01 10:44:22;;;;;;;8.07;6.53;;;15.80;99.90;;;;;;5043395;28;20477;-77
2021/07/01 10:46:49;;;;;;;6.37;5.47;;;15.80;99.90;;;;;;5045206;28;20610;-76
2021/07/01 10:49:18;;;;;;;11.00;7.20;;;15.80;99.90;;;;;;5036710;28;20510;-76
2021/07/01 10:52:00;;;;;;;9.57;5.50;;;15.70;99.90;;;;;;5045851;28;20916;-77
2021/07/01 10:54:27;;;;;;;7.63;5.77;;;15.80;99.90;;;;;;5059695;28;20426;-77
2021/07/01 10:57:04;;;;;;;11.40;6.10;;;15.70;99.90;;;;;;5049836;28;20441;-76
2021/07/01 10:59:48;;;;;;;9.17;6.03;;;15.70;99.90;;;;;;5057004;28;20887;-77
2021/07/01 11:02:23;;;;;;;8.30;6.07;;;15.70;99.90;;;;;;5057130;28;20436;-77
2021/07/01 11:04:50;;;;;;;6.90;5.43;;;15.70;99.90;;;;;;5052667;28;20466;-76
2021/07/01 11:07:18;;;;;;;10.47;6.10;;;15.70;99.90;;;;;;5057111;28;20454;-76
2021/07/01 11:09:47;;;;;;;10.83;6.87;;;15.70;99.90;;;;;;5068301;28;20432;-76
2021/07/01 11:12:17;;;;;;;8.37;5.83;;;15.70;99.90;;;;;;5053399;28;20796;-77
2021/07/01 11:14:46;;;;;;;8.00;6.00;;;15.70;99.90;;;;;;5052694;28;20772;-76
2021/07/01 11:17:15;;;;;;;6.50;5.00;;;15.70;99.90;;;;;;5068155;28;20435;-76
2021/07/01 11:19:44;;;;;;;7.13;5.10;;;15.70;99.90;;;;;;5050930;28;20420;-75
2021/07/01 11:22:11;;;;;;;7.67;4.20;;;15.70;99.90;;;;;;5056830;28;20436;-76
2021/07/01 11:24:41;;;;;;;7.27;4.73;;;15.80;99.90;;;;;;5059650;28;20459;-77
2021/07/01 11:27:08;;;;;;;7.47;5.50;;;15.80;99.90;;;;;;5051322;28;20487;-76
2021/07/01 11:29:38;;;;;;;8.30;4.60;;;15.90;99.90;;;;;;5048160;28;20929;-76
2021/07/01 11:32:19;;;;;;;6.67;4.90;;;15.90;99.90;;;;;;5047419;28;20446;-76
2021/07/01 11:34:48;;;;;;;6.37;4.60;;;15.90;99.90;;;;;;5048903;28;20834;-75
2021/07/01 11:37:31;;;;;;;7.70;4.83;;;16.00;99.90;;;;;;5050960;28;20471;-75
2021/07/01 11:40:11;;;;;;;7.57;4.83;;;16.00;99.90;;;;;;5041863;28;20435;-75
2021/07/01 11:42:38;;;;;;;8.03;5.03;;;16.00;99.90;;;;;;5054729;28;20433;-75
2021/07/01 11:45:10;;;;;;;6.10;5.50;;;16.00;99.90;;;;;;5058597;28;20464;-76
2021/07/01 11:47:37;;;;;;;8.93;5.10;;;16.00;99.90;;;;;;5046634;28;20420;-77
2021/07/01 11:50:06;;;;;;;7.73;5.00;;;16.00;99.90;;;;;;5046587;28;20430;-77
2021/07/01 11:52:33;;;;;;;6.80;5.47;;;16.10;99.90;;;;;;5052372;28;20449;-77
2021/07/01 11:55:01;;;;;;;9.70;4.83;;;16.00;99.90;;;;;;5064763;28;20806;-76
2021/07/01 11:57:28;;;;;;;7.97;5.10;;;16.10;99.90;;;;;;5048959;28;20428;-76
2021/07/01 11:59:55;;;;;;;8.30;4.87;;;16.10;99.90;;;;;;5048781;28;20947;-76
2021/07/01 12:02:24;;;;;;;7.50;4.97;;;16.10;99.90;;;;;;5052891;28;20515;-77
2021/07/01 12:04:52;;;;;;;9.30;5.67;;;16.10;99.90;;;;;;5044697;28;20956;-76
2021/07/01 12:07:25;;;;;;;7.83;5.43;;;16.10;99.90;;;;;;5053616;28;20422;-77
2021/07/01 12:09:53;;;;;;;6.40;5.37;;;16.00;99.90;;;;;;5051577;28;20453;-76
2021/07/01 12:12:21;;;;;;;7.43;4.97;;;16.10;99.90;;;;;;5050598;28;20467;-76
2021/07/01 12:14:50;;;;;;;8.00;4.93;;;16.00;99.90;;;;;;5047624;28;20468;-76
2021/07/01 12:17:47;;;;;;;6.83;4.93;;;16.00;99.90;;;;;;5050766;28;20449;-76
2021/07/01 12:20:28;;;;;;;9.13;5.83;;;16.00;99.90;;;;;;5049795;28;20793;-76
2021/07/01 12:22:55;;;;;;;9.30;5.90;;;16.00;99.90;;;;;;5061786;28;20446;-77
2021/07/01 12:25:42;;;;;;;6.60;5.27;;;16.00;99.90;;;;;;5049011;28;20481;-76
2021/07/01 12:28:10;;;;;;;8.77;6.00;;;16.10;99.90;;;;;;5048942;28;20408;-77
2021/07/01 12:30:51;;;;;;;8.37;5.80;;;16.00;99.90;;;;;;5033158;28;20453;-77
2021/07/01 12:33:35;;;;;;;9.03;6.30;;;16.10;99.90;;;;;;5071219;28;20531;-77
2021/07/01 12:36:09;;;;;;;5.60;5.10;;;16.00;99.90;;;;;;5057203;28;20460;-76
2021/07/01 12:38:36;;;;;;;8.07;6.10;;;16.00;99.90;;;;;;5032016;28;20817;-76
2021/07/01 12:41:07;;;;;;;10.13;6.13;;;16.10;99.90;;;;;;5060128;28;20432;-76
2021/07/01 12:43:56;;;;;;;10.53;6.23;;;16.10;99.90;;;;;;5055096;28;20439;-76
2021/07/01 12:46:54;;;;;;;6.97;6.17;;;16.10;99.90;;;;;;5050623;28;20799;-76
2021/07/01 12:49:52;;;;;;;8.80;6.67;;;16.10;99.90;;;;;;5049633;28;20439;-77
2021/07/01 12:52:22;;;;;;;8.20;6.13;;;16.00;99.90;;;;;;5053249;28;20515;-76